Time;durP1;ratioP1;P1;durP2;ratioP2;P2;SDS_P1;SDS_P2;PMS_P1;PMS_P2;Temp;Humidity;BMP_temperature;BMP_pressure;BME280_temperature;BME280_humidity;BME280_pressure;Samples;Min_cycle;Max_cycle;Signal;HPM_P1;HPM_P2
2022/09/11 00:01:59;;;;;;;;;;;;;;;51.22;17.43;101003.59;5116742;28;19916;-61
2022/09/11 00:04:26;;;;;;;;;;;;;;;51.87;16.56;101002.53;5116240;28;19966;-61
2022/09/11 00:06:52;;;;;;;;;;;;;;;50.54;17.74;101002.63;5116103;28;19920;-61
2022/09/11 00:09:18;;;;;;;;;;;;;;;48.82;20.04;101005.66;5116097;28;19974;-61
2022/09/11 00:11:45;;;;;;;;;;;;;;;50.05;18.15;100997.44;5116233;28;20019;-61
2022/09/11 00:14:12;;;;;;;;;;;;;;;50.82;17.33;100993.72;5116330;28;19920;-61
2022/09/11 00:16:40;;;;;;;;;;;;;;;50.78;16.94;100994.00;5115812;28;19920;-61
2022/09/11 00:19:08;;;;;;;;;;;;;;;51.45;17.37;100993.31;5115877;28;19920;-61
2022/09/11 00:21:35;;;;;;;;;;;;;;;51.93;16.81;100985.84;5115926;28;19941;-61
2022/09/11 00:24:01;;;;;;;;;;;;;;;48.21;20.69;100998.53;5116012;28;19942;-61
2022/09/11 00:26:28;;;;;;;;;;;;;;;48.84;20.36;100994.38;5115903;28;19920;-61
2022/09/11 00:28:54;;;;;;;;;;;;;;;48.82;19.75;100992.00;5115683;28;20382;-61
2022/09/11 00:31:25;;;;;;;;;;;;;;;48.32;20.44;100989.13;5115939;28;19916;-61
2022/09/11 00:33:51;;;;;;;;;;;;;;;48.59;20.02;100997.03;5115649;28;19924;-61
2022/09/11 00:36:20;;;;;;;;;;;;;;;49.38;19.69;100991.97;5115566;28;20018;-61
2022/09/11 00:38:46;;;;;;;;;;;;;;;49.16;19.82;100991.97;5115576;28;19946;-61
2022/09/11 00:41:14;;;;;;;;;;;;;;;50.11;18.87;100988.75;5115776;28;19916;-61
2022/09/11 00:43:49;;;;;;;;;;;;;;;49.63;18.91;100998.66;5115490;28;19920;-61
2022/09/11 00:46:16;;;;;;;;;;;;;;;49.65;19.13;100992.38;5115498;28;19930;-61
2022/09/11 00:48:43;;;;;;;;;;;;;;;49.56;19.59;100994.25;5115506;28;19938;-60
2022/09/11 00:51:09;;;;;;;;;;;;;;;47.94;20.86;101005.00;5115544;28;19919;-61
2022/09/11 00:53:36;;;;;;;;;;;;;;;48.89;20.23;101003.03;5115180;28;19942;-61
2022/09/11 00:56:05;;;;;;;;;;;;;;;49.58;18.85;101005.28;5115176;28;19963;-61
2022/09/11 00:58:33;;;;;;;;;;;;;;;50.00;19.27;101001.16;5097143;28;19916;-61
2022/09/11 01:01:02;;;;;;;;;;;;;;;50.21;18.31;101010.22;5096969;28;19915;-61
2022/09/11 01:03:29;;;;;;;;;;;;;;;48.11;20.65;101009.50;5115179;28;19925;-61
2022/09/11 01:05:55;;;;;;;;;;;;;;;48.68;20.27;101005.44;5115337;28;19916;-61
2022/09/11 01:08:22;;;;;;;;;;;;;;;47.67;21.48;101015.09;5096861;28;19916;-61
2022/09/11 01:10:52;;;;;;;;;;;;;;;49.21;19.98;101011.41;5115090;28;19927;-61
2022/09/11 01:13:33;;;;;;;;;;;;;;;49.53;19.05;101008.94;5114998;28;20354;-61
2022/09/11 01:16:08;;;;;;;;;;;;;;;49.59;19.07;101001.06;5096293;28;20343;-61
2022/09/11 01:18:40;;;;;;;;;;;;;;;49.46;19.64;101006.63;5114940;28;19919;-61
2022/09/11 01:21:26;;;;;;;;;;;;;;;48.34;20.76;100998.84;5096669;28;20002;-61
2022/09/11 01:23:59;;;;;;;;;;;;;;;48.72;20.27;101005.94;5096495;28;19972;-61
2022/09/11 01:26:48;;;;;;;;;;;;;;;48.27;21.24;100998.53;5096503;28;19920;-61
2022/09/11 01:29:17;;;;;;;;;;;;;;;48.53;20.82;101006.97;5114541;28;19920;-61
2022/09/11 01:31:51;;;;;;;;;;;;;;;48.35;21.68;101011.16;5114502;28;19965;-61
2022/09/11 01:34:28;;;;;;;;;;;;;;;48.78;20.57;101000.16;5096408;28;20377;-61
2022/09/11 01:37:02;;;;;;;;;;;;;;;47.80;21.97;101001.81;5096032;28;19923;-61
2022/09/11 01:39:40;;;;;;;;;;;;;;;47.70;22.07;101008.31;5096355;28;19935;-61
2022/09/11 01:42:13;;;;;;;;;;;;;;;48.63;21.22;101009.09;5096707;28;20353;-61
2022/09/11 01:44:45;;;;;;;;;;;;;;;47.51;22.72;101007.97;5096082;28;19923;-61
2022/09/11 01:47:12;;;;;;;;;;;;;;;48.27;21.85;101012.97;5114366;28;19920;-61
2022/09/11 01:49:44;;;;;;;;;;;;;;;48.12;21.80;101008.22;5096012;28;19919;-61
2022/09/11 01:52:18;;;;;;;;;;;;;;;47.57;22.71;101019.50;5096077;28;19920;-61
2022/09/11 01:54:55;;;;;;;;;;;;;;;48.08;22.18;101022.06;5114298;28;20331;-61
2022/09/11 01:57:32;;;;;;;;;;;;;;;48.37;21.37;101029.50;5096043;28;19920;-61
2022/09/11 02:00:02;;;;;;;;;;;;;;;47.49;22.82;101033.59;5114248;28;19927;-61
2022/09/11 02:02:51;;;;;;;;;;;;;;;47.26;22.53;101024.03;5114387;28;19919;-61
2022/09/11 02:05:24;;;;;;;;;;;;;;;47.65;22.16;101035.78;5095983;28;19966;-61
2022/09/11 02:07:58;;;;;;;;;;;;;;;47.89;22.08;101031.72;5095856;28;19919;-61
2022/09/11 02:10:44;;;;;;;;;;;;;;;47.19;22.46;101039.69;5095877;28;20305;-61
2022/09/11 02:13:16;;;;;;;;;;;;;;;48.47;20.95;101030.03;5095769;28;19920;-61
2022/09/11 02:15:45;;;;;;;;;;;;;;;47.09;22.55;101040.38;5095769;28;19920;-61
2022/09/11 02:18:17;;;;;;;;;;;;;;;48.27;21.10;101038.91;5095791;28;20003;-61
2022/09/11 02:20:46;;;;;;;;;;;;;;;47.13;22.75;101038.06;5096015;28;19919;-61
2022/09/11 02:23:13;;;;;;;;;;;;;;;48.10;21.35;101036.75;5095685;28;19915;-61
2022/09/11 02:25:40;;;;;;;;;;;;;;;47.77;21.95;101040.31;5095639;28;20027;-61
2022/09/11 02:28:06;;;;;;;;;;;;;;;47.73;22.16;101048.38;5113896;28;19920;-61
2022/09/11 02:30:32;;;;;;;;;;;;;;;47.77;21.42;101048.16;5095526;28;19919;-61
2022/09/11 02:32:59;;;;;;;;;;;;;;;47.65;21.67;101038.69;5095683;28;19916;-61
2022/09/11 02:35:31;;;;;;;;;;;;;;;47.46;21.96;101040.38;5113849;28;19920;-61
2022/09/11 02:38:06;;;;;;;;;;;;;;;47.35;22.32;101046.84;5113991;28;19970;-61
2022/09/11 02:40:45;;;;;;;;;;;;;;;47.25;22.11;101059.91;5079020;28;19920;-61
2022/09/11 02:43:30;;;;;;;;;;;;;;;47.45;22.33;101062.63;5095662;28;20362;-61
2022/09/11 02:46:11;;;;;;;;;;;;;;;47.55;22.02;101064.03;5095402;28;20332;-61
2022/09/11 02:48:56;;;;;;;;;;;;;;;48.16;21.54;101076.38;5116542;28;19919;-60
2022/09/11 02:51:25;;;;;;;;;;;;;;;48.09;21.82;101075.53;5099401;28;19927;-60
2022/09/11 02:53:57;;;;;;;;;;;;;;;47.15;22.32;101073.69;5099273;28;20020;-61
2022/09/11 02:56:25;;;;;;;;;;;;;;;47.81;22.07;101072.53;5099264;28;19963;-61
2022/09/11 02:58:54;;;;;;;;;;;;;;;48.32;21.47;101076.44;5117583;28;19916;-61
2022/09/11 03:01:22;;;;;;;;;;;;;;;47.87;22.06;101081.22;5099294;28;19920;-61
2022/09/11 03:03:49;;;;;;;;;;;;;;;46.54;23.57;101081.75;5099188;28;19967;-61
2022/09/11 03:06:17;;;;;;;;;;;;;;;46.38;23.95;101098.28;5099096;28;19920;-61
2022/09/11 03:08:43;;;;;;;;;;;;;;;45.92;24.90;101091.69;5099208;28;20323;-61
2022/09/11 03:11:10;;;;;;;;;;;;;;;47.08;23.08;101091.41;5099135;28;19965;-61
2022/09/11 03:13:36;;;;;;;;;;;;;;;48.17;21.96;101098.13;5099279;28;19927;-61
2022/09/11 03:16:04;;;;;;;;;;;;;;;48.24;21.58;101094.75;5117033;28;19920;-61
2022/09/11 03:18:32;;;;;;;;;;;;;;;47.35;22.35;101104.44;5098976;28;20000;-61
2022/09/11 03:20:58;;;;;;;;;;;;;;;47.60;22.52;101113.56;5098692;28;19966;-61
2022/09/11 03:23:26;;;;;;;;;;;;;;;47.92;21.78;101112.16;5098780;28;19957;-61
2022/09/11 03:25:53;;;;;;;;;;;;;;;48.46;21.75;101120.75;5098614;28;20040;-61
2022/09/11 03:28:21;;;;;;;;;;;;;;;48.52;21.40;101118.69;5116942;28;19969;-61
2022/09/11 03:30:49;;;;;;;;;;;;;;;47.72;21.83;101129.59;5098527;28;20334;-61
2022/09/11 03:33:18;;;;;;;;;;;;;;;48.08;21.83;101131.63;5117055;28;20017;-61
2022/09/11 03:35:46;;;;;;;;;;;;;;;48.12;21.80;101135.06;5098343;28;19920;-61
2022/09/11 03:38:14;;;;;;;;;;;;;;;46.72;23.26;101138.16;5098491;28;19923;-61
2022/09/11 03:40:41;;;;;;;;;;;;;;;47.47;22.24;101146.44;5098450;28;19916;-60
2022/09/11 03:43:08;;;;;;;;;;;;;;;48.03;21.13;101151.78;5116828;28;19975;-61
2022/09/11 03:45:34;;;;;;;;;;;;;;;48.37;21.04;101158.50;5116996;28;19969;-61
2022/09/11 03:48:01;;;;;;;;;;;;;;;48.09;21.38;101167.78;5116537;28;20372;-61
2022/09/11 03:50:27;;;;;;;;;;;;;;;47.99;21.15;101162.78;5098340;28;19926;-61
2022/09/11 03:52:53;;;;;;;;;;;;;;;47.26;21.89;101162.25;5098095;28;19912;-61
2022/09/11 03:55:22;;;;;;;;;;;;;;;47.60;21.90;101171.19;5098187;28;20357;-61
2022/09/11 03:57:48;;;;;;;;;;;;;;;47.82;21.00;101168.44;5098302;28;19922;-61
2022/09/11 04:00:15;;;;;;;;;;;;;;;47.72;21.67;101167.03;5097868;28;20291;-61
2022/09/11 04:02:47;;;;;;;;;;;;;;;47.98;20.69;101173.53;5116707;28;19956;-61
2022/09/11 04:05:24;;;;;;;;;;;;;;;48.41;20.60;101170.56;5097942;28;19920;-61
2022/09/11 04:07:52;;;;;;;;;;;;;;;48.17;21.06;101173.09;5098082;28;20332;-60
2022/09/11 04:10:18;;;;;;;;;;;;;;;48.56;20.03;101174.03;5098085;28;19916;-61
2022/09/11 04:12:46;;;;;;;;;;;;;;;48.27;20.84;101180.22;5098040;28;19994;-60
2022/09/11 04:15:12;;;;;;;;;;;;;;;48.49;21.01;101173.75;5094117;28;20378;-61
2022/09/11 04:17:38;;;;;;;;;;;;;;;48.14;21.13;101178.59;5094503;28;20384;-60
2022/09/11 04:20:05;;;;;;;;;;;;;;;48.53;20.58;101177.97;5095669;28;20439;-61
2022/09/11 04:22:32;;;;;;;;;;;;;;;48.45;20.63;101188.41;5094189;28;19942;-60
2022/09/11 04:24:59;;;;;;;;;;;;;;;48.40;20.71;101189.97;5094166;28;20015;-61
2022/09/11 04:27:26;;;;;;;;;;;;;;;48.37;20.65;101193.13;5094503;28;19942;-60
2022/09/11 04:29:52;;;;;;;;;;;;;;;48.00;21.20;101188.22;5094179;28;19916;-60
2022/09/11 04:32:18;;;;;;;;;;;;;;;47.87;21.69;101189.97;5094021;28;19916;-61
2022/09/11 04:34:45;;;;;;;;;;;;;;;48.69;20.66;101185.91;5094122;28;19916;-60
2022/09/11 04:37:11;;;;;;;;;;;;;;;48.34;21.20;101188.41;5093891;28;19920;-61
2022/09/11 04:39:38;;;;;;;;;;;;;;;48.30;21.50;101194.41;5094021;28;20001;-60
2022/09/11 04:42:05;;;;;;;;;;;;;;;46.85;22.40;101191.13;5093776;28;20015;-60
2022/09/11 04:44:33;;;;;;;;;;;;;;;47.87;21.58;101204.38;5094198;28;19958;-61
2022/09/11 04:46:59;;;;;;;;;;;;;;;48.02;21.09;101202.88;5093700;28;19965;-61
2022/09/11 04:49:26;;;;;;;;;;;;;;;47.63;21.95;101208.38;5093731;28;20010;-61
2022/09/11 04:51:52;;;;;;;;;;;;;;;47.97;21.25;101209.41;5094818;28;19959;-60
2022/09/11 04:54:22;;;;;;;;;;;;;;;48.19;21.38;101205.06;5093726;28;19960;-60
2022/09/11 04:56:50;;;;;;;;;;;;;;;48.58;20.55;101200.28;5093633;28;19924;-61
2022/09/11 04:59:21;;;;;;;;;;;;;;;48.35;21.27;101207.28;5093698;28;19961;-60
2022/09/11 05:02:02;;;;;;;;;;;;;;;48.50;21.27;101204.97;5093421;28;19955;-60
2022/09/11 05:04:29;;;;;;;;;;;;;;;48.49;21.14;101205.50;5093379;28;19966;-60
2022/09/11 05:06:55;;;;;;;;;;;;;;;48.12;21.63;101203.44;5093393;28;19923;-61
2022/09/11 05:09:25;;;;;;;;;;;;;;;47.40;22.21;101201.63;5093336;28;19973;-61
2022/09/11 05:11:53;;;;;;;;;;;;;;;47.36;22.35;101206.81;5092774;28;20358;-61
2022/09/11 05:14:22;;;;;;;;;;;;;;;47.79;21.88;101198.28;5093173;28;19932;-60
2022/09/11 05:16:51;;;;;;;;;;;;;;;47.35;21.96;101198.69;5093147;28;20460;-60
2022/09/11 05:19:21;;;;;;;;;;;;;;;47.38;22.56;101194.78;5093252;28;19920;-61
2022/09/11 05:21:48;;;;;;;;;;;;;;;47.46;21.75;101193.81;5093137;28;20018;-61
2022/09/11 05:24:15;;;;;;;;;;;;;;;47.67;21.63;101188.75;5092953;28;19964;-61
2022/09/11 05:26:41;;;;;;;;;;;;;;;47.84;21.45;101201.19;5092865;28;19916;-60
2022/09/11 05:29:10;;;;;;;;;;;;;;;47.27;22.47;101194.72;5092917;28;20015;-60
2022/09/11 05:32:01;;;;;;;;;;;;;;;47.06;22.58;101203.41;5093751;28;19927;-61
2022/09/11 05:34:28;;;;;;;;;;;;;;;46.79;23.11;101198.13;5092998;28;19920;-60
2022/09/11 05:37:01;;;;;;;;;;;;;;;46.76;23.53;101197.06;5092863;28;19963;-61
2022/09/11 05:39:30;;;;;;;;;;;;;;;46.62;23.82;101192.16;5092966;28;19919;-60
2022/09/11 05:41:59;;;;;;;;;;;;;;;47.65;22.29;101196.34;5092679;28;20385;-60
2022/09/11 05:44:29;;;;;;;;;;;;;;;47.12;23.47;101194.81;5093076;28;19959;-61
2022/09/11 05:46:57;;;;;;;;;;;;;;;46.91;23.82;101191.22;5092608;28;20010;-61
2022/09/11 05:49:24;;;;;;;;;;;;;;;46.76;23.62;101196.25;5092819;28;19916;-60
2022/09/11 05:51:50;;;;;;;;;;;;;;;46.26;24.57;101184.91;5094095;28;19920;-60
2022/09/11 05:54:16;;;;;;;;;;;;;;;47.35;22.89;101190.84;5092679;28;19920;-60
2022/09/11 05:56:44;;;;;;;;;;;;;;;47.50;22.93;101191.53;5092524;28;20118;-61
2022/09/11 05:59:16;;;;;;;;;;;;;;;47.58;22.91;101196.78;5092675;28;19916;-61
2022/09/11 06:01:46;;;;;;;;;;;;;;;47.63;22.70;101196.84;5092872;28;20003;-61
2022/09/11 06:04:41;;;;;;;;;;;;;;;48.10;22.31;101198.19;5083574;28;20416;-61
2022/09/11 06:07:08;;;;;;;;;;;;;;;48.13;21.91;101196.41;5093712;28;19920;-61
2022/09/11 06:09:35;;;;;;;;;;;;;;;48.23;22.18;101191.22;5092684;28;19916;-60
2022/09/11 06:12:01;;;;;;;;;;;;;;;48.37;22.07;101190.25;5092287;28;19920;-60
2022/09/11 06:14:28;;;;;;;;;;;;;;;47.54;23.31;101202.81;5092407;28;19999;-61
2022/09/11 06:16:55;;;;;;;;;;;;;;;47.65;23.29;101200.00;5095603;28;20014;-61
2022/09/11 06:19:23;;;;;;;;;;;;;;;47.87;22.61;101202.28;5095747;28;19920;-61
2022/09/11 06:21:50;;;;;;;;;;;;;;;47.69;23.05;101208.41;5097208;28;20373;-60
2022/09/11 06:24:42;;;;;;;;;;;;;;;47.39;23.25;101199.25;5114171;28;20064;-61
2022/09/11 06:27:08;;;;;;;;;;;;;;;47.70;23.01;101205.00;5099942;28;19919;-60
2022/09/11 06:29:38;;;;;;;;;;;;;;;47.65;22.70;101202.88;5099761;28;19916;-61
2022/09/11 06:32:05;;;;;;;;;;;;;;;47.74;22.91;101211.31;5099607;28;19924;-60
2022/09/11 06:34:32;;;;;;;;;;;;;;;47.61;23.38;101210.19;5099767;28;19915;-60
2022/09/11 06:37:03;;;;;;;;;;;;;;;47.61;23.23;101201.56;5099674;28;20053;-60
2022/09/11 06:39:30;;;;;;;;;;;;;;;47.44;23.16;101204.28;5099916;28;19931;-61
2022/09/11 06:41:58;;;;;;;;;;;;;;;46.92;24.30;101210.84;5099750;28;19916;-60
2022/09/11 06:44:29;;;;;;;;;;;;;;;47.50;23.49;101203.03;5099681;28;19920;-61
2022/09/11 06:46:58;;;;;;;;;;;;;;;47.72;22.76;101201.63;5099437;28;19920;-61
2022/09/11 06:49:25;;;;;;;;;;;;;;;47.32;23.19;101212.03;5099887;28;19919;-61
2022/09/11 06:52:10;;;;;;;;;;;;;;;47.72;23.04;101204.50;5118336;28;19934;-61
2022/09/11 06:54:38;;;;;;;;;;;;;;;47.83;22.68;101213.22;5117681;28;19973;-60
2022/09/11 06:57:11;;;;;;;;;;;;;;;47.96;22.10;101219.38;5099221;28;19939;-60
2022/09/11 06:59:38;;;;;;;;;;;;;;;48.00;22.13;101216.25;5099636;28;19919;-61
2022/09/11 07:02:04;;;;;;;;;;;;;;;48.03;22.48;101216.00;5117728;28;19912;-61
2022/09/11 07:04:31;;;;;;;;;;;;;;;47.82;22.45;101215.31;5099285;28;20342;-61
2022/09/11 07:06:58;;;;;;;;;;;;;;;47.50;22.89;101217.44;5099035;28;20404;-60
2022/09/11 07:09:24;;;;;;;;;;;;;;;47.52;23.01;101206.19;5099223;28;19968;-61
2022/09/11 07:11:54;;;;;;;;;;;;;;;47.28;22.83;101220.13;5099107;28;19919;-60
2022/09/11 07:14:24;;;;;;;;;;;;;;;47.77;22.25;101223.94;5099042;28;20389;-61
2022/09/11 07:16:56;;;;;;;;;;;;;;;47.75;22.66;101217.88;5099067;28;19927;-61
2022/09/11 07:19:24;;;;;;;;;;;;;;;47.65;22.90;101220.19;5117108;28;19927;-61
2022/09/11 07:21:51;;;;;;;;;;;;;;;47.68;22.64;101224.91;5116935;28;19916;-61
2022/09/11 07:24:18;;;;;;;;;;;;;;;47.69;22.53;101220.72;5098899;28;19919;-61
2022/09/11 07:26:44;;;;;;;;;;;;;;;47.56;22.35;101217.47;5117165;28;20370;-61
2022/09/11 07:29:17;;;;;;;;;;;;;;;47.43;22.62;101214.22;5098660;28;20258;-61
2022/09/11 07:31:46;;;;;;;;;;;;;;;47.79;22.15;101218.44;5098523;28;19919;-61
2022/09/11 07:34:14;;;;;;;;;;;;;;;47.92;21.90;101227.44;5097982;28;19916;-61
2022/09/11 07:36:41;;;;;;;;;;;;;;;47.65;22.54;101228.03;5098466;28;19969;-60
2022/09/11 07:39:08;;;;;;;;;;;;;;;47.69;22.65;101231.47;5098510;28;19962;-61
2022/09/11 07:41:55;;;;;;;;;;;;;;;47.31;22.45;101224.84;5115765;28;20377;-61
2022/09/11 07:44:27;;;;;;;;;;;;;;;47.38;23.11;101218.63;5098425;28;19955;-61
2022/09/11 07:46:54;;;;;;;;;;;;;;;47.28;22.89;101225.88;5098337;28;19938;-61
2022/09/11 07:49:20;;;;;;;;;;;;;;;47.49;22.74;101224.47;5116920;28;19998;-61
2022/09/11 07:51:47;;;;;;;;;;;;;;;47.78;21.93;101222.63;5098303;28;19920;-61
2022/09/11 07:54:20;;;;;;;;;;;;;;;47.66;22.38;101221.75;5098387;28;19927;-61
2022/09/11 07:56:47;;;;;;;;;;;;;;;47.66;22.60;101223.84;5098015;28;19962;-61
2022/09/11 07:59:17;;;;;;;;;;;;;;;47.72;22.26;101231.22;5098351;28;19916;-61
2022/09/11 08:01:49;;;;;;;;;;;;;;;47.64;22.06;101217.81;5098177;28;19915;-61
2022/09/11 08:04:16;;;;;;;;;;;;;;;47.78;21.93;101222.63;5116246;28;19972;-61
2022/09/11 08:06:43;;;;;;;;;;;;;;;47.99;21.68;101220.44;5097854;28;19916;-61
2022/09/11 08:09:15;;;;;;;;;;;;;;;47.66;22.01;101215.22;5097879;28;19919;-61
2022/09/11 08:11:52;;;;;;;;;;;;;;;47.68;22.20;101224.13;5097925;28;19969;-61
2022/09/11 08:14:20;;;;;;;;;;;;;;;47.70;22.31;101225.19;5097860;28;19964;-61
2022/09/11 08:16:48;;;;;;;;;;;;;;;47.79;21.70;101221.34;5094341;28;19920;-61
2022/09/11 08:19:17;;;;;;;;;;;;;;;47.68;21.94;101224.13;5094450;28;19971;-61
2022/09/11 08:21:46;;;;;;;;;;;;;;;47.79;21.76;101221.34;5094491;28;19969;-61
2022/09/11 08:24:14;;;;;;;;;;;;;;;47.74;21.93;101222.84;5094196;28;19939;-61
2022/09/11 08:26:40;;;;;;;;;;;;;;;47.84;21.92;101227.13;5095515;28;19920;-61
2022/09/11 08:29:06;;;;;;;;;;;;;;;47.92;21.54;101226.66;5094286;28;19920;-61
2022/09/11 08:31:33;;;;;;;;;;;;;;;47.68;22.44;101236.44;5094077;28;20305;-61
2022/09/11 08:34:01;;;;;;;;;;;;;;;47.67;22.21;101231.19;5095403;28;19955;-61
2022/09/11 08:36:28;;;;;;;;;;;;;;;47.61;22.29;101231.16;5093880;28;19995;-61
2022/09/11 08:38:58;;;;;;;;;;;;;;;47.51;22.52;101227.66;5094015;28;19923;-61
2022/09/11 08:41:31;;;;;;;;;;;;;;;47.49;22.50;101224.47;5093850;28;19923;-61
2022/09/11 08:44:04;;;;;;;;;;;;;;;47.43;22.28;101226.53;5095207;28;19924;-61
2022/09/11 08:46:34;;;;;;;;;;;;;;;47.40;22.34;101224.69;5092706;28;19916;-61
2022/09/11 08:49:03;;;;;;;;;;;;;;;47.61;22.19;101231.16;5093703;28;20358;-61
2022/09/11 08:51:30;;;;;;;;;;;;;;;47.62;22.58;101229.84;5095162;28;19926;-61
2022/09/11 08:53:58;;;;;;;;;;;;;;;47.76;21.81;101225.22;5093823;28;19913;-61
2022/09/11 08:56:28;;;;;;;;;;;;;;;47.70;22.27;101228.06;5093534;28;20357;-61
2022/09/11 08:59:01;;;;;;;;;;;;;;;47.67;21.79;101223.34;5093655;28;19926;-60
2022/09/11 09:01:48;;;;;;;;;;;;;;;47.45;22.53;101226.03;5093501;28;20469;-60
2022/09/11 09:04:25;;;;;;;;;;;;;;;47.62;22.17;101217.53;5093436;28;20393;-61
2022/09/11 09:07:10;;;;;;;;;;;;;;;47.70;22.09;101218.63;5093423;28;19920;-61
2022/09/11 09:09:56;;;;;;;;;;;;;;;47.66;22.13;101226.72;5093361;28;19924;-61
2022/09/11 09:12:40;;;;;;;;;;;;;;;47.72;22.17;101213.94;5094653;28;19943;-61
2022/09/11 09:15:29;;;;;;;;;;;;;;;47.53;22.18;101213.53;5099981;28;20388;-61
2022/09/11 09:18:22;;;;;;;;;;;;;;;47.53;22.28;101210.66;5096701;28;19920;-61
2022/09/11 09:21:01;;;;;;;;;;;;;;;47.69;21.67;101217.06;5096514;28;19926;-60
2022/09/11 09:23:30;;;;;;;;;;;;;;;47.73;22.12;101218.38;5096408;28;19930;-61
2022/09/11 09:25:56;;;;;;;;;;;;;;;47.64;22.06;101212.84;5096566;28;19931;-61
2022/09/11 09:28:24;;;;;;;;;;;;;;;47.12;22.70;101209.19;5096339;28;20011;-61
2022/09/11 09:30:53;;;;;;;;;;;;;;;47.24;22.37;101213.81;5096371;28;19923;-61
2022/09/11 09:33:25;;;;;;;;;;;;;;;47.49;22.40;101206.41;5096605;28;19924;-61
2022/09/11 09:35:56;;;;;;;;;;;;;;;47.43;22.33;101215.00;5096425;28;19926;-61
2022/09/11 09:38:28;;;;;;;;;;;;;;;47.35;22.40;101211.00;5096179;28;19920;-61
2022/09/11 09:41:13;;;;;;;;;;;;;;;47.48;22.48;101210.59;5096140;28;20295;-61
2022/09/11 09:43:40;;;;;;;;;;;;;;;47.38;22.65;101218.63;5096183;28;19962;-60
2022/09/11 09:46:06;;;;;;;;;;;;;;;47.05;22.57;101218.31;5114280;28;19915;-60
2022/09/11 09:48:35;;;;;;;;;;;;;;;47.03;23.15;101220.88;5114255;28;20370;-61
2022/09/11 09:51:02;;;;;;;;;;;;;;;47.19;22.44;101205.88;5114341;28;19916;-61
2022/09/11 09:53:39;;;;;;;;;;;;;;;47.43;22.54;101209.25;5114262;28;20289;-61
2022/09/11 09:56:06;;;;;;;;;;;;;;;46.96;23.10;101210.63;5113852;28;19919;-61
2022/09/11 09:58:35;;;;;;;;;;;;;;;47.21;22.54;101209.81;5114295;28;20006;-61
2022/09/11 10:01:02;;;;;;;;;;;;;;;47.28;22.17;101210.69;5112515;28;19984;-61
2022/09/11 10:03:28;;;;;;;;;;;;;;;47.27;22.66;101212.78;5114085;28;19923;-61
2022/09/11 10:05:55;;;;;;;;;;;;;;;47.20;22.24;101214.00;5114062;28;19916;-61
2022/09/11 10:08:34;;;;;;;;;;;;;;;47.19;22.65;101223.94;5110627;28;20297;-61
2022/09/11 10:11:03;;;;;;;;;;;;;;;47.30;22.28;101213.84;5113764;28;19916;-61
2022/09/11 10:13:42;;;;;;;;;;;;;;;47.50;22.34;101211.69;5113819;28;19915;-60
2022/09/11 10:16:19;;;;;;;;;;;;;;;47.41;22.37;101223.38;5113665;28;20447;-60
2022/09/11 10:18:48;;;;;;;;;;;;;;;47.38;21.99;101218.63;5113488;28;20458;-61
2022/09/11 10:21:20;;;;;;;;;;;;;;;47.42;22.16;101227.03;5112766;28;20258;-60
2022/09/11 10:23:56;;;;;;;;;;;;;;;47.24;22.57;101225.31;5111968;28;19920;-61
2022/09/11 10:26:25;;;;;;;;;;;;;;;47.04;22.46;101234.75;5111806;28;19920;-60
2022/09/11 10:28:53;;;;;;;;;;;;;;;47.27;22.73;101235.81;5112017;28;20440;-61
2022/09/11 10:31:21;;;;;;;;;;;;;;;47.09;22.44;101236.13;5111717;28;20014;-61
2022/09/11 10:33:54;;;;;;;;;;;;;;;47.23;22.45;101229.50;5111724;28;20330;-60
2022/09/11 10:36:22;;;;;;;;;;;;;;;47.17;22.81;101234.41;5112472;28;19928;-61
2022/09/11 10:38:49;;;;;;;;;;;;;;;47.38;22.07;101238.78;5113858;28;19916;-61
2022/09/11 10:41:20;;;;;;;;;;;;;;;47.49;22.31;101236.00;5113712;28;19930;-61
2022/09/11 10:44:01;;;;;;;;;;;;;;;47.44;22.48;101235.97;5113644;28;20007;-60
2022/09/11 10:46:41;;;;;;;;;;;;;;;47.53;22.33;101242.34;5113631;28;19924;-60
2022/09/11 10:49:14;;;;;;;;;;;;;;;47.61;22.06;101242.69;5113607;28;19927;-61
2022/09/11 10:51:41;;;;;;;;;;;;;;;47.69;21.77;101248.75;5113533;28;19919;-61
2022/09/11 10:54:46;;;;;;;;;;;;;;;47.54;21.97;101249.69;5113621;28;19949;-61
2022/09/11 10:57:21;;;;;;;;;;;;;;;47.43;22.13;101245.91;5011265;28;19929;-61
2022/09/11 10:59:54;;;;;;;;;;;;;;;46.81;23.24;101251.00;5011427;28;19931;-61
2022/09/11 11:02:40;;;;;;;;;;;;;;;47.28;22.61;101254.66;5070670;28;19931;-61
2022/09/11 11:05:13;;;;;;;;;;;;;;;47.26;22.32;101251.50;5113493;28;20374;-61
2022/09/11 11:07:52;;;;;;;;;;;;;;;47.34;22.22;101255.50;5113766;28;19926;-61
2022/09/11 11:10:31;;;;;;;;;;;;;;;47.20;22.25;101254.31;5117245;28;19931;-61
2022/09/11 11:12:57;;;;;;;;;;;;;;;47.08;22.72;101254.69;5117561;28;19923;-61
2022/09/11 11:15:43;;;;;;;;;;;;;;;46.89;23.16;101252.16;5116916;28;19958;-61
2022/09/11 11:18:16;;;;;;;;;;;;;;;46.95;22.74;101253.00;5117199;28;19950;-61
2022/09/11 11:20:54;;;;;;;;;;;;;;;46.96;23.11;101251.69;5117330;28;19926;-61
2022/09/11 11:23:21;;;;;;;;;;;;;;;47.03;22.53;101238.16;5117195;28;19926;-60
2022/09/11 11:26:10;;;;;;;;;;;;;;;46.89;23.14;101242.72;5117093;28;20012;-61
2022/09/11 11:29:01;;;;;;;;;;;;;;;46.79;23.17;101241.28;5116621;28;20386;-61
2022/09/11 11:31:27;;;;;;;;;;;;;;;46.68;23.19;101241.91;5116898;28;19923;-60
2022/09/11 11:34:14;;;;;;;;;;;;;;;46.61;22.93;101245.25;5116870;28;19916;-61
2022/09/11 11:36:43;;;;;;;;;;;;;;;46.78;22.74;101243.38;5065520;28;19919;-61
2022/09/11 11:39:17;;;;;;;;;;;;;;;46.67;23.08;101244.00;5116693;28;20422;-61
2022/09/11 11:41:45;;;;;;;;;;;;;;;46.52;22.87;101239.66;5116862;28;19915;-61
2022/09/11 11:44:16;;;;;;;;;;;;;;;46.57;23.38;101241.81;5116607;28;19923;-61
2022/09/11 11:46:44;;;;;;;;;;;;;;;46.40;23.29;101250.22;5116724;28;20499;-60
2022/09/11 11:49:18;;;;;;;;;;;;;;;46.13;23.20;101242.75;5098591;28;19919;-61
2022/09/11 11:52:04;;;;;;;;;;;;;;;45.87;23.89;101247.56;5116402;28;19916;-61
2022/09/11 11:54:43;;;;;;;;;;;;;;;46.08;23.68;101250.00;5116573;28;19941;-61
2022/09/11 11:57:21;;;;;;;;;;;;;;;45.87;23.56;101253.31;5116590;28;19919;-61
2022/09/11 11:59:50;;;;;;;;;;;;;;;45.89;23.80;101250.72;5116468;28;19931;-61
2022/09/11 12:02:42;;;;;;;;;;;;;;;46.15;23.34;101257.44;5116298;28;19966;-61
2022/09/11 12:05:22;;;;;;;;;;;;;;;46.14;23.55;101260.78;5111888;28;19961;-60
2022/09/11 12:07:49;;;;;;;;;;;;;;;46.13;23.17;101260.00;5116240;28;20009;-61
2022/09/11 12:10:27;;;;;;;;;;;;;;;46.31;22.98;101259.72;5116151;28;19931;-60
2022/09/11 12:12:57;;;;;;;;;;;;;;;46.28;23.20;101266.47;5116374;28;19926;-61
2022/09/11 12:15:28;;;;;;;;;;;;;;;46.20;23.34;101265.34;5115871;28;19968;-61
2022/09/11 12:17:59;;;;;;;;;;;;;;;46.23;23.28;101270.06;5116182;28;19920;-61
2022/09/11 12:20:34;;;;;;;;;;;;;;;46.20;23.37;101262.47;5116113;28;19968;-61
2022/09/11 12:23:01;;;;;;;;;;;;;;;46.45;22.81;101263.88;5115944;28;19920;-61
2022/09/11 12:25:27;;;;;;;;;;;;;;;46.36;22.65;101261.13;5115742;28;19911;-61
2022/09/11 12:27:54;;;;;;;;;;;;;;;46.28;22.72;101274.31;5115863;28;20283;-61
2022/09/11 12:30:25;;;;;;;;;;;;;;;44.68;26.08;101272.44;5115903;28;19985;-61
2022/09/11 12:32:52;;;;;;;;;;;;;;;46.59;22.40;101274.50;5097534;28;19942;-61
2022/09/11 12:35:20;;;;;;;;;;;;;;;46.74;22.69;101280.19;5115615;28;19911;-61
2022/09/11 12:37:51;;;;;;;;;;;;;;;46.69;21.99;101272.28;5097625;28;19973;-61
2022/09/11 12:40:26;;;;;;;;;;;;;;;46.75;22.09;101281.78;5115606;28;19972;-61
2022/09/11 12:42:57;;;;;;;;;;;;;;;46.76;22.41;101286.25;5115587;28;19926;-61
2022/09/11 12:45:37;;;;;;;;;;;;;;;46.81;22.18;101278.97;5115779;28;19973;-61
2022/09/11 12:48:05;;;;;;;;;;;;;;;46.85;22.23;101282.44;5115529;28;19919;-61
2022/09/11 12:50:32;;;;;;;;;;;;;;;46.93;22.01;101280.69;5115310;28;19968;-61
2022/09/11 12:53:01;;;;;;;;;;;;;;;46.87;21.96;101288.50;5115220;28;20393;-61
2022/09/11 12:55:38;;;;;;;;;;;;;;;46.85;22.33;101291.84;5115228;28;19920;-61